sensor_id;sensor_type;location;lat;lon;timestamp;P1;durP1;ratioP1;P2;durP2;ratioP2
59239;SDS011;45010;53.640;10.578;2022-12-18T00:01:39;3.42;;;3.13;;
59239;SDS011;45010;53.640;10.578;2022-12-18T00:04:39;3.45;;;3.15;;
59239;SDS011;45010;53.640;10.578;2022-12-18T00:07:40;3.60;;;3.03;;
59239;SDS011;45010;53.640;10.578;2022-12-18T00:10:40;3.83;;;3.45;;
59239;SDS011;45010;53.640;10.578;2022-12-18T00:13:41;4.35;;;3.42;;
59239;SDS011;45010;53.640;10.578;2022-12-18T00:16:45;3.20;;;2.90;;
59239;SDS011;45010;53.640;10.578;2022-12-18T00:19:46;4.00;;;3.40;;
59239;SDS011;45010;53.640;10.578;2022-12-18T00:22:47;4.50;;;3.30;;
59239;SDS011;45010;53.640;10.578;2022-12-18T00:25:47;3.15;;;2.72;;
59239;SDS011;45010;53.640;10.578;2022-12-18T00:28:48;4.40;;;3.70;;
59239;SDS011;45010;53.640;10.578;2022-12-18T00:31:48;3.80;;;3.40;;
59239;SDS011;45010;53.640;10.578;2022-12-18T00:34:48;3.55;;;3.25;;
59239;SDS011;45010;53.640;10.578;2022-12-18T00:37:49;3.22;;;2.92;;
59239;SDS011;45010;53.640;10.578;2022-12-18T00:40:49;3.92;;;3.25;;
59239;SDS011;45010;53.640;10.578;2022-12-18T00:43:50;3.60;;;3.17;;
59239;SDS011;45010;53.640;10.578;2022-12-18T00:46:50;3.22;;;2.92;;
59239;SDS011;45010;53.640;10.578;2022-12-18T00:49:50;3.70;;;3.13;;
59239;SDS011;45010;53.640;10.578;2022-12-18T00:52:51;3.58;;;3.20;;
59239;SDS011;45010;53.640;10.578;2022-12-18T00:55:51;2.95;;;2.70;;
59239;SDS011;45010;53.640;10.578;2022-12-18T00:58:52;3.50;;;3.20;;
59239;SDS011;45010;53.640;10.578;2022-12-18T01:01:52;3.42;;;3.13;;
59239;SDS011;45010;53.640;10.578;2022-12-18T01:04:52;3.67;;;3.28;;
59239;SDS011;45010;53.640;10.578;2022-12-18T01:07:52;3.60;;;3.13;;
59239;SDS011;45010;53.640;10.578;2022-12-18T01:10:53;4.13;;;3.40;;
59239;SDS011;45010;53.640;10.578;2022-12-18T01:13:53;3.30;;;3.00;;
59239;SDS011;45010;53.640;10.578;2022-12-18T01:16:55;4.28;;;3.60;;
59239;SDS011;45010;53.640;10.578;2022-12-18T01:19:55;4.10;;;3.58;;
59239;SDS011;45010;53.640;10.578;2022-12-18T01:22:55;3.90;;;3.50;;
59239;SDS011;45010;53.640;10.578;2022-12-18T01:25:56;4.60;;;3.83;;
59239;SDS011;45010;53.640;10.578;2022-12-18T01:28:56;3.33;;;3.03;;
59239;SDS011;45010;53.640;10.578;2022-12-18T01:31:57;3.72;;;3.25;;
59239;SDS011;45010;53.640;10.578;2022-12-18T01:34:57;4.05;;;3.58;;
59239;SDS011;45010;53.640;10.578;2022-12-18T01:37:57;4.38;;;3.60;;
59239;SDS011;45010;53.640;10.578;2022-12-18T01:40:58;3.55;;;3.25;;
59239;SDS011;45010;53.640;10.578;2022-12-18T01:43:59;3.85;;;3.28;;
59239;SDS011;45010;53.640;10.578;2022-12-18T01:47:00;3.40;;;3.10;;
59239;SDS011;45010;53.640;10.578;2022-12-18T01:50:02;3.70;;;3.40;;
59239;SDS011;45010;53.640;10.578;2022-12-18T01:56:18;3.90;;;3.50;;
59239;SDS011;45010;53.640;10.578;2022-12-18T01:59:20;4.25;;;3.85;;
59239;SDS011;45010;53.640;10.578;2022-12-18T02:02:21;4.13;;;3.72;;
59239;SDS011;45010;53.640;10.578;2022-12-18T02:05:44;3.70;;;3.40;;
59239;SDS011;45010;53.640;10.578;2022-12-18T02:08:58;3.63;;;3.30;;
59239;SDS011;45010;53.640;10.578;2022-12-18T02:12:23;4.07;;;3.67;;
59239;SDS011;45010;53.640;10.578;2022-12-18T02:15:29;3.97;;;3.47;;
59239;SDS011;45010;53.640;10.578;2022-12-18T02:18:37;3.67;;;3.38;;
59239;SDS011;45010;53.640;10.578;2022-12-18T02:22:00;4.13;;;3.72;;
59239;SDS011;45010;53.640;10.578;2022-12-18T02:32:02;4.38;;;3.45;;
59239;SDS011;45010;53.640;10.578;2022-12-18T02:35:07;3.88;;;3.35;;
59239;SDS011;45010;53.640;10.578;2022-12-18T02:38:14;3.85;;;3.20;;
59239;SDS011;45010;53.640;10.578;2022-12-18T02:41:16;3.40;;;3.10;;
59239;SDS011;45010;53.640;10.578;2022-12-18T02:44:16;3.63;;;3.28;;
59239;SDS011;45010;53.640;10.578;2022-12-18T02:47:17;4.10;;;3.42;;
59239;SDS011;45010;53.640;10.578;2022-12-18T02:50:30;4.05;;;3.38;;
59239;SDS011;45010;53.640;10.578;2022-12-18T02:53:45;3.60;;;3.05;;
59239;SDS011;45010;53.640;10.578;2022-12-18T02:56:56;3.80;;;3.45;;
59239;SDS011;45010;53.640;10.578;2022-12-18T03:00:13;4.15;;;3.80;;
59239;SDS011;45010;53.640;10.578;2022-12-18T03:03:19;3.33;;;3.03;;
59239;SDS011;45010;53.640;10.578;2022-12-18T03:06:28;4.05;;;3.65;;
59239;SDS011;45010;53.640;10.578;2022-12-18T03:09:33;4.50;;;3.78;;
59239;SDS011;45010;53.640;10.578;2022-12-18T03:12:37;3.67;;;3.38;;
59239;SDS011;45010;53.640;10.578;2022-12-18T03:15:48;3.60;;;3.28;;
59239;SDS011;45010;53.640;10.578;2022-12-18T03:18:52;3.60;;;3.30;;
59239;SDS011;45010;53.640;10.578;2022-12-18T03:21:58;4.00;;;3.50;;
59239;SDS011;45010;53.640;10.578;2022-12-18T03:25:03;3.53;;;3.22;;
59239;SDS011;45010;53.640;10.578;2022-12-18T03:28:08;4.40;;;3.58;;
59239;SDS011;45010;53.640;10.578;2022-12-18T03:31:12;4.32;;;3.60;;
59239;SDS011;45010;53.640;10.578;2022-12-18T03:34:15;3.92;;;3.50;;
59239;SDS011;45010;53.640;10.578;2022-12-18T03:37:19;3.78;;;3.40;;
59239;SDS011;45010;53.640;10.578;2022-12-18T03:40:24;4.85;;;3.63;;
59239;SDS011;45010;53.640;10.578;2022-12-18T03:43:49;3.88;;;3.35;;
59239;SDS011;45010;53.640;10.578;2022-12-18T03:50:41;3.92;;;3.53;;
59239;SDS011;45010;53.640;10.578;2022-12-18T03:53:51;3.50;;;3.20;;
59239;SDS011;45010;53.640;10.578;2022-12-18T03:57:02;3.97;;;3.60;;
59239;SDS011;45010;53.640;10.578;2022-12-18T04:00:11;3.70;;;3.40;;
59239;SDS011;45010;53.640;10.578;2022-12-18T04:03:13;4.07;;;3.38;;
59239;SDS011;45010;53.640;10.578;2022-12-18T04:06:14;3.50;;;3.10;;
59239;SDS011;45010;53.640;10.578;2022-12-18T04:09:17;4.22;;;3.60;;
59239;SDS011;45010;53.640;10.578;2022-12-18T04:12:18;3.92;;;3.53;;
59239;SDS011;45010;53.640;10.578;2022-12-18T04:15:19;3.92;;;3.53;;
59239;SDS011;45010;53.640;10.578;2022-12-18T04:18:19;4.70;;;3.58;;
59239;SDS011;45010;53.640;10.578;2022-12-18T04:21:21;4.05;;;3.65;;
59239;SDS011;45010;53.640;10.578;2022-12-18T04:24:22;3.88;;;3.47;;
59239;SDS011;45010;53.640;10.578;2022-12-18T04:27:22;3.60;;;3.30;;
59239;SDS011;45010;53.640;10.578;2022-12-18T04:30:23;4.82;;;3.50;;
59239;SDS011;45010;53.640;10.578;2022-12-18T04:33:23;3.47;;;3.17;;
59239;SDS011;45010;53.640;10.578;2022-12-18T04:36:23;4.13;;;3.67;;
59239;SDS011;45010;53.640;10.578;2022-12-18T04:39:25;3.72;;;3.35;;
59239;SDS011;45010;53.640;10.578;2022-12-18T04:42:26;4.00;;;3.40;;
59239;SDS011;45010;53.640;10.578;2022-12-18T04:45:26;3.80;;;3.38;;
59239;SDS011;45010;53.640;10.578;2022-12-18T04:48:26;4.05;;;3.50;;
59239;SDS011;45010;53.640;10.578;2022-12-18T04:51:27;3.30;;;3.00;;
59239;SDS011;45010;53.640;10.578;2022-12-18T04:54:27;3.83;;;3.50;;
59239;SDS011;45010;53.640;10.578;2022-12-18T04:57:27;3.78;;;3.38;;
59239;SDS011;45010;53.640;10.578;2022-12-18T05:00:28;3.58;;;3.28;;
59239;SDS011;45010;53.640;10.578;2022-12-18T05:03:28;4.00;;;3.53;;
59239;SDS011;45010;53.640;10.578;2022-12-18T05:06:28;4.50;;;3.50;;
59239;SDS011;45010;53.640;10.578;2022-12-18T05:09:29;4.00;;;3.28;;
59239;SDS011;45010;53.640;10.578;2022-12-18T05:12:30;4.13;;;3.38;;
59239;SDS011;45010;53.640;10.578;2022-12-18T05:15:31;4.57;;;3.80;;
59239;SDS011;45010;53.640;10.578;2022-12-18T05:18:32;3.80;;;3.40;;
59239;SDS011;45010;53.640;10.578;2022-12-18T05:21:33;3.63;;;3.30;;
59239;SDS011;45010;53.640;10.578;2022-12-18T05:24:33;3.42;;;3.13;;
59239;SDS011;45010;53.640;10.578;2022-12-18T05:27:34;3.67;;;3.28;;
59239;SDS011;45010;53.640;10.578;2022-12-18T05:30:34;3.83;;;3.53;;
59239;SDS011;45010;53.640;10.578;2022-12-18T05:33:34;3.95;;;3.28;;
59239;SDS011;45010;53.640;10.578;2022-12-18T05:36:36;4.00;;;3.60;;
59239;SDS011;45010;53.640;10.578;2022-12-18T05:39:36;3.88;;;3.47;;
59239;SDS011;45010;53.640;10.578;2022-12-18T05:42:36;3.42;;;3.13;;
59239;SDS011;45010;53.640;10.578;2022-12-18T05:45:40;4.07;;;3.67;;
59239;SDS011;45010;53.640;10.578;2022-12-18T05:48:41;3.50;;;3.20;;
59239;SDS011;45010;53.640;10.578;2022-12-18T05:51:42;3.90;;;3.50;;
59239;SDS011;45010;53.640;10.578;2022-12-18T05:54:42;3.60;;;3.30;;
59239;SDS011;45010;53.640;10.578;2022-12-18T05:57:42;3.50;;;3.20;;
59239;SDS011;45010;53.640;10.578;2022-12-18T06:00:44;4.22;;;3.70;;
59239;SDS011;45010;53.640;10.578;2022-12-18T06:03:45;3.63;;;3.25;;
59239;SDS011;45010;53.640;10.578;2022-12-18T06:06:46;3.67;;;3.38;;
59239;SDS011;45010;53.640;10.578;2022-12-18T06:09:46;3.63;;;3.22;;
59239;SDS011;45010;53.640;10.578;2022-12-18T06:12:47;3.97;;;3.45;;
59239;SDS011;45010;53.640;10.578;2022-12-18T06:15:47;3.75;;;3.15;;
59239;SDS011;45010;53.640;10.578;2022-12-18T06:18:47;3.90;;;3.50;;
59239;SDS011;45010;53.640;10.578;2022-12-18T06:21:47;3.97;;;3.58;;
59239;SDS011;45010;53.640;10.578;2022-12-18T06:24:49;4.78;;;3.65;;
59239;SDS011;45010;53.640;10.578;2022-12-18T06:27:49;4.07;;;3.67;;
59239;SDS011;45010;53.640;10.578;2022-12-18T06:30:49;3.70;;;3.35;;
59239;SDS011;45010;53.640;10.578;2022-12-18T06:33:50;3.60;;;3.25;;
59239;SDS011;45010;53.640;10.578;2022-12-18T06:36:50;3.38;;;3.08;;
59239;SDS011;45010;53.640;10.578;2022-12-18T06:39:51;3.47;;;3.17;;
59239;SDS011;45010;53.640;10.578;2022-12-18T06:42:52;3.92;;;3.28;;
59239;SDS011;45010;53.640;10.578;2022-12-18T06:45:57;3.45;;;3.15;;
59239;SDS011;45010;53.640;10.578;2022-12-18T06:48:59;4.55;;;3.70;;
59239;SDS011;45010;53.640;10.578;2022-12-18T06:51:59;4.10;;;3.70;;
59239;SDS011;45010;53.640;10.578;2022-12-18T06:54:59;3.72;;;3.33;;
59239;SDS011;45010;53.640;10.578;2022-12-18T06:58:00;3.65;;;3.30;;
59239;SDS011;45010;53.640;10.578;2022-12-18T07:01:01;3.90;;;3.58;;
59239;SDS011;45010;53.640;10.578;2022-12-18T07:04:02;3.67;;;3.38;;
59239;SDS011;45010;53.640;10.578;2022-12-18T07:07:02;3.85;;;3.38;;
59239;SDS011;45010;53.640;10.578;2022-12-18T07:10:03;4.03;;;3.60;;
59239;SDS011;45010;53.640;10.578;2022-12-18T07:13:03;4.20;;;3.80;;
59239;SDS011;45010;53.640;10.578;2022-12-18T07:16:05;3.58;;;3.22;;
59239;SDS011;45010;53.640;10.578;2022-12-18T07:19:06;4.10;;;3.38;;
59239;SDS011;45010;53.640;10.578;2022-12-18T07:22:06;4.35;;;3.83;;
59239;SDS011;45010;53.640;10.578;2022-12-18T07:25:07;3.63;;;3.33;;
59239;SDS011;45010;53.640;10.578;2022-12-18T07:28:07;3.97;;;3.58;;
59239;SDS011;45010;53.640;10.578;2022-12-18T07:31:10;3.97;;;3.58;;
59239;SDS011;45010;53.640;10.578;2022-12-18T07:34:14;3.72;;;3.33;;
59239;SDS011;45010;53.640;10.578;2022-12-18T07:37:15;4.38;;;3.95;;
59239;SDS011;45010;53.640;10.578;2022-12-18T07:40:15;4.22;;;3.47;;
59239;SDS011;45010;53.640;10.578;2022-12-18T07:43:15;3.85;;;3.45;;
59239;SDS011;45010;53.640;10.578;2022-12-18T07:46:16;3.95;;;3.45;;
59239;SDS011;45010;53.640;10.578;2022-12-18T07:49:17;3.80;;;3.33;;
59239;SDS011;45010;53.640;10.578;2022-12-18T07:52:17;4.00;;;3.47;;
59239;SDS011;45010;53.640;10.578;2022-12-18T07:55:18;3.42;;;3.13;;
59239;SDS011;45010;53.640;10.578;2022-12-18T07:58:18;3.83;;;3.50;;
59239;SDS011;45010;53.640;10.578;2022-12-18T08:01:19;4.13;;;3.40;;
59239;SDS011;45010;53.640;10.578;2022-12-18T08:04:19;3.30;;;2.92;;
59239;SDS011;45010;53.640;10.578;2022-12-18T08:07:20;3.88;;;3.45;;
59239;SDS011;45010;53.640;10.578;2022-12-18T08:10:20;4.07;;;3.58;;
59239;SDS011;45010;53.640;10.578;2022-12-18T08:13:21;3.97;;;3.42;;
59239;SDS011;45010;53.640;10.578;2022-12-18T08:16:21;3.20;;;2.90;;
59239;SDS011;45010;53.640;10.578;2022-12-18T08:19:22;3.83;;;3.30;;
59239;SDS011;45010;53.640;10.578;2022-12-18T08:22:22;3.60;;;3.30;;
59239;SDS011;45010;53.640;10.578;2022-12-18T08:25:23;3.55;;;3.25;;
59239;SDS011;45010;53.640;10.578;2022-12-18T08:28:23;3.42;;;3.13;;
59239;SDS011;45010;53.640;10.578;2022-12-18T08:31:24;4.20;;;3.65;;
59239;SDS011;45010;53.640;10.578;2022-12-18T08:34:25;3.85;;;3.45;;
59239;SDS011;45010;53.640;10.578;2022-12-18T08:37:25;4.68;;;3.75;;
59239;SDS011;45010;53.640;10.578;2022-12-18T08:40:26;3.80;;;3.42;;
59239;SDS011;45010;53.640;10.578;2022-12-18T08:43:26;4.10;;;3.50;;
59239;SDS011;45010;53.640;10.578;2022-12-18T08:46:45;3.40;;;3.10;;
59239;SDS011;45010;53.640;10.578;2022-12-18T08:49:46;4.00;;;3.25;;
59239;SDS011;45010;53.640;10.578;2022-12-18T08:52:46;4.35;;;3.58;;
59239;SDS011;45010;53.640;10.578;2022-12-18T08:55:46;4.15;;;3.05;;
59239;SDS011;45010;53.640;10.578;2022-12-18T08:58:47;3.35;;;3.05;;
59239;SDS011;45010;53.640;10.578;2022-12-18T09:01:47;3.97;;;3.30;;
59239;SDS011;45010;53.640;10.578;2022-12-18T09:04:48;3.47;;;3.17;;
59239;SDS011;45010;53.640;10.578;2022-12-18T09:07:48;3.78;;;3.28;;
59239;SDS011;45010;53.640;10.578;2022-12-18T09:10:49;3.80;;;3.08;;
59239;SDS011;45010;53.640;10.578;2022-12-18T09:13:52;3.67;;;3.38;;
59239;SDS011;45010;53.640;10.578;2022-12-18T09:16:52;4.60;;;3.45;;
59239;SDS011;45010;53.640;10.578;2022-12-18T09:19:53;4.00;;;3.60;;
59239;SDS011;45010;53.640;10.578;2022-12-18T09:22:53;3.42;;;3.13;;
59239;SDS011;45010;53.640;10.578;2022-12-18T09:25:58;3.50;;;3.20;;
59239;SDS011;45010;53.640;10.578;2022-12-18T09:28:59;3.47;;;3.17;;
59239;SDS011;45010;53.640;10.578;2022-12-18T09:31:59;3.88;;;3.35;;
59239;SDS011;45010;53.640;10.578;2022-12-18T09:34:59;3.60;;;3.30;;
59239;SDS011;45010;53.640;10.578;2022-12-18T09:38:00;3.83;;;3.42;;
59239;SDS011;45010;53.640;10.578;2022-12-18T09:41:02;3.63;;;3.33;;
59239;SDS011;45010;53.640;10.578;2022-12-18T09:44:20;4.40;;;3.70;;
59239;SDS011;45010;53.640;10.578;2022-12-18T09:47:24;3.42;;;2.97;;
59239;SDS011;45010;53.640;10.578;2022-12-18T09:50:32;3.70;;;3.15;;
59239;SDS011;45010;53.640;10.578;2022-12-18T09:53:35;4.00;;;3.22;;
59239;SDS011;45010;53.640;10.578;2022-12-18T09:56:41;3.35;;;3.05;;
59239;SDS011;45010;53.640;10.578;2022-12-18T09:59:44;3.38;;;3.08;;
59239;SDS011;45010;53.640;10.578;2022-12-18T10:02:50;3.45;;;3.10;;
59239;SDS011;45010;53.640;10.578;2022-12-18T10:12:48;3.28;;;2.97;;
59239;SDS011;45010;53.640;10.578;2022-12-18T10:16:31;3.90;;;3.42;;
59239;SDS011;45010;53.640;10.578;2022-12-18T10:19:58;3.53;;;3.22;;
59239;SDS011;45010;53.640;10.578;2022-12-18T10:23:10;3.63;;;3.20;;
59239;SDS011;45010;53.640;10.578;2022-12-18T10:26:18;3.08;;;2.78;;
59239;SDS011;45010;53.640;10.578;2022-12-18T10:29:19;4.30;;;3.45;;
59239;SDS011;45010;53.640;10.578;2022-12-18T10:32:21;3.50;;;3.20;;
59239;SDS011;45010;53.640;10.578;2022-12-18T10:35:24;2.83;;;2.63;;
59239;SDS011;45010;53.640;10.578;2022-12-18T10:38:28;3.20;;;2.90;;
59239;SDS011;45010;53.640;10.578;2022-12-18T10:41:29;3.80;;;3.40;;
59239;SDS011;45010;53.640;10.578;2022-12-18T10:44:32;3.55;;;3.25;;
59239;SDS011;45010;53.640;10.578;2022-12-18T10:47:32;3.42;;;3.13;;
59239;SDS011;45010;53.640;10.578;2022-12-18T10:50:35;3.83;;;3.22;;
59239;SDS011;45010;53.640;10.578;2022-12-18T10:53:37;3.05;;;2.75;;
59239;SDS011;45010;53.640;10.578;2022-12-18T10:56:41;3.20;;;2.90;;
59239;SDS011;45010;53.640;10.578;2022-12-18T10:59:52;3.20;;;2.90;;
59239;SDS011;45010;53.640;10.578;2022-12-18T11:02:54;3.50;;;3.20;;
59239;SDS011;45010;53.640;10.578;2022-12-18T11:06:01;3.40;;;3.10;;
59239;SDS011;45010;53.640;10.578;2022-12-18T11:09:18;3.15;;;2.85;;
59239;SDS011;45010;53.640;10.578;2022-12-18T11:12:21;3.60;;;3.28;;
59239;SDS011;45010;53.640;10.578;2022-12-18T11:15:24;3.15;;;2.85;;
59239;SDS011;45010;53.640;10.578;2022-12-18T11:18:30;3.47;;;3.03;;
59239;SDS011;45010;53.640;10.578;2022-12-18T11:21:38;3.33;;;2.67;;
59239;SDS011;45010;53.640;10.578;2022-12-18T11:24:39;3.33;;;2.95;;
59239;SDS011;45010;53.640;10.578;2022-12-18T11:27:40;3.13;;;2.55;;
59239;SDS011;45010;53.640;10.578;2022-12-18T11:30:40;3.03;;;2.60;;
59239;SDS011;45010;53.640;10.578;2022-12-18T11:33:42;3.47;;;3.17;;
59239;SDS011;45010;53.640;10.578;2022-12-18T11:36:48;3.38;;;3.05;;
59239;SDS011;45010;53.640;10.578;2022-12-18T11:39:49;3.13;;;2.83;;
59239;SDS011;45010;53.640;10.578;2022-12-18T11:43:03;3.13;;;2.83;;
59239;SDS011;45010;53.640;10.578;2022-12-18T11:46:11;3.53;;;3.22;;
59239;SDS011;45010;53.640;10.578;2022-12-18T11:49:33;4.07;;;3.13;;
59239;SDS011;45010;53.640;10.578;2022-12-18T11:52:38;3.25;;;2.88;;
59239;SDS011;45010;53.640;10.578;2022-12-18T11:59:13;3.10;;;2.80;;
59239;SDS011;45010;53.640;10.578;2022-12-18T12:02:47;3.13;;;2.83;;
59239;SDS011;45010;53.640;10.578;2022-12-18T12:09:34;4.50;;;3.13;;
59239;SDS011;45010;53.640;10.578;2022-12-18T12:13:07;3.45;;;2.90;;
59239;SDS011;45010;53.640;10.578;2022-12-18T12:16:18;3.47;;;2.78;;
59239;SDS011;45010;53.640;10.578;2022-12-18T12:19:30;3.10;;;2.60;;
59239;SDS011;45010;53.640;10.578;2022-12-18T12:22:35;2.90;;;2.55;;
59239;SDS011;45010;53.640;10.578;2022-12-18T12:25:56;4.07;;;3.08;;
59239;SDS011;45010;53.640;10.578;2022-12-18T12:29:17;3.25;;;2.80;;
59239;SDS011;45010;53.640;10.578;2022-12-18T12:32:45;3.15;;;2.85;;
59239;SDS011;45010;53.640;10.578;2022-12-18T12:39:35;3.10;;;2.80;;
59239;SDS011;45010;53.640;10.578;2022-12-18T12:42:38;3.63;;;2.78;;
59239;SDS011;45010;53.640;10.578;2022-12-18T12:46:06;3.35;;;2.90;;
59239;SDS011;45010;53.640;10.578;2022-12-18T12:49:18;2.97;;;2.67;;
59239;SDS011;45010;53.640;10.578;2022-12-18T12:52:32;3.15;;;2.65;;
59239;SDS011;45010;53.640;10.578;2022-12-18T12:55:37;3.58;;;2.92;;
59239;SDS011;45010;53.640;10.578;2022-12-18T12:58:45;2.65;;;2.33;;
59239;SDS011;45010;53.640;10.578;2022-12-18T13:01:54;2.75;;;2.45;;
59239;SDS011;45010;53.640;10.578;2022-12-18T13:08:55;3.25;;;2.85;;
59239;SDS011;45010;53.640;10.578;2022-12-18T13:12:08;3.28;;;2.95;;
59239;SDS011;45010;53.640;10.578;2022-12-18T13:18:36;2.85;;;2.53;;
59239;SDS011;45010;53.640;10.578;2022-12-18T13:21:37;2.85;;;2.50;;
59239;SDS011;45010;53.640;10.578;2022-12-18T13:24:37;2.83;;;2.38;;
59239;SDS011;45010;53.640;10.578;2022-12-18T13:30:51;3.15;;;2.63;;
59239;SDS011;45010;53.640;10.578;2022-12-18T13:33:53;2.72;;;2.22;;
59239;SDS011;45010;53.640;10.578;2022-12-18T13:43:45;2.80;;;2.50;;
59239;SDS011;45010;53.640;10.578;2022-12-18T13:46:48;3.17;;;2.88;;
59239;SDS011;45010;53.640;10.578;2022-12-18T13:49:50;3.22;;;2.63;;
59239;SDS011;45010;53.640;10.578;2022-12-18T13:52:51;3.40;;;2.80;;
59239;SDS011;45010;53.640;10.578;2022-12-18T13:55:52;3.25;;;2.83;;
59239;SDS011;45010;53.640;10.578;2022-12-18T14:02:14;3.13;;;2.60;;
59239;SDS011;45010;53.640;10.578;2022-12-18T14:05:26;3.47;;;3.05;;
59239;SDS011;45010;53.640;10.578;2022-12-18T14:08:32;3.03;;;2.72;;
59239;SDS011;45010;53.640;10.578;2022-12-18T14:11:37;2.97;;;2.67;;
59239;SDS011;45010;53.640;10.578;2022-12-18T14:14:40;3.28;;;2.80;;
59239;SDS011;45010;53.640;10.578;2022-12-18T14:17:42;2.75;;;2.55;;
59239;SDS011;45010;53.640;10.578;2022-12-18T14:20:43;2.88;;;2.50;;
59239;SDS011;45010;53.640;10.578;2022-12-18T14:23:44;2.88;;;2.58;;
59239;SDS011;45010;53.640;10.578;2022-12-18T14:26:45;3.08;;;2.75;;
59239;SDS011;45010;53.640;10.578;2022-12-18T14:29:49;3.10;;;2.70;;
59239;SDS011;45010;53.640;10.578;2022-12-18T14:33:03;3.22;;;2.70;;
59239;SDS011;45010;53.640;10.578;2022-12-18T14:36:18;3.25;;;2.72;;
59239;SDS011;45010;53.640;10.578;2022-12-18T14:39:20;3.72;;;2.92;;
59239;SDS011;45010;53.640;10.578;2022-12-18T14:42:22;2.70;;;2.50;;
59239;SDS011;45010;53.640;10.578;2022-12-18T14:45:32;3.13;;;2.60;;
59239;SDS011;45010;53.640;10.578;2022-12-18T14:48:41;3.10;;;2.80;;
59239;SDS011;45010;53.640;10.578;2022-12-18T14:51:47;2.60;;;2.40;;
59239;SDS011;45010;53.640;10.578;2022-12-18T14:54:49;2.70;;;2.47;;
59239;SDS011;45010;53.640;10.578;2022-12-18T14:57:50;3.00;;;2.70;;
59239;SDS011;45010;53.640;10.578;2022-12-18T15:00:54;3.90;;;3.00;;
59239;SDS011;45010;53.640;10.578;2022-12-18T15:03:55;2.97;;;2.70;;
59239;SDS011;45010;53.640;10.578;2022-12-18T15:13:29;3.42;;;2.75;;
59239;SDS011;45010;53.640;10.578;2022-12-18T15:16:29;3.88;;;2.97;;
59239;SDS011;45010;53.640;10.578;2022-12-18T15:19:39;3.33;;;3.00;;
59239;SDS011;45010;53.640;10.578;2022-12-18T15:22:41;3.50;;;3.20;;
59239;SDS011;45010;53.640;10.578;2022-12-18T15:25:41;3.53;;;2.95;;
59239;SDS011;45010;53.640;10.578;2022-12-18T15:28:54;3.42;;;3.10;;
59239;SDS011;45010;53.640;10.578;2022-12-18T15:31:58;3.05;;;2.70;;
59239;SDS011;45010;53.640;10.578;2022-12-18T15:38:09;3.10;;;2.80;;
59239;SDS011;45010;53.640;10.578;2022-12-18T15:41:13;3.55;;;2.97;;
59239;SDS011;45010;53.640;10.578;2022-12-18T15:44:22;4.28;;;3.30;;
59239;SDS011;45010;53.640;10.578;2022-12-18T15:47:24;3.20;;;2.85;;
59239;SDS011;45010;53.640;10.578;2022-12-18T15:50:25;3.47;;;2.78;;
59239;SDS011;45010;53.640;10.578;2022-12-18T15:53:26;3.75;;;3.13;;
59239;SDS011;45010;53.640;10.578;2022-12-18T15:56:30;3.00;;;2.70;;
59239;SDS011;45010;53.640;10.578;2022-12-18T15:59:50;3.22;;;2.72;;
59239;SDS011;45010;53.640;10.578;2022-12-18T16:02:52;3.35;;;3.05;;
59239;SDS011;45010;53.640;10.578;2022-12-18T16:05:53;3.25;;;2.95;;
59239;SDS011;45010;53.640;10.578;2022-12-18T16:08:53;2.92;;;2.70;;
59239;SDS011;45010;53.640;10.578;2022-12-18T16:11:53;4.78;;;2.97;;
59239;SDS011;45010;53.640;10.578;2022-12-18T16:14:54;3.55;;;3.05;;
59239;SDS011;45010;53.640;10.578;2022-12-18T16:17:54;4.20;;;3.25;;
59239;SDS011;45010;53.640;10.578;2022-12-18T16:20:54;3.05;;;2.75;;
59239;SDS011;45010;53.640;10.578;2022-12-18T16:23:54;3.20;;;2.88;;
59239;SDS011;45010;53.640;10.578;2022-12-18T16:26:56;4.45;;;3.30;;
59239;SDS011;45010;53.640;10.578;2022-12-18T16:29:59;3.53;;;2.88;;
59239;SDS011;45010;53.640;10.578;2022-12-18T16:32:59;3.40;;;2.90;;
59239;SDS011;45010;53.640;10.578;2022-12-18T16:36:00;3.17;;;2.83;;
59239;SDS011;45010;53.640;10.578;2022-12-18T16:39:00;3.70;;;3.03;;
59239;SDS011;45010;53.640;10.578;2022-12-18T16:42:01;3.30;;;2.75;;
59239;SDS011;45010;53.640;10.578;2022-12-18T16:45:03;3.90;;;3.13;;
59239;SDS011;45010;53.640;10.578;2022-12-18T16:48:04;3.08;;;2.78;;
59239;SDS011;45010;53.640;10.578;2022-12-18T16:51:05;3.40;;;3.10;;
59239;SDS011;45010;53.640;10.578;2022-12-18T16:54:05;3.40;;;3.03;;
59239;SDS011;45010;53.640;10.578;2022-12-18T16:57:06;3.30;;;2.72;;
59239;SDS011;45010;53.640;10.578;2022-12-18T17:00:06;3.00;;;2.60;;
59239;SDS011;45010;53.640;10.578;2022-12-18T17:03:07;2.50;;;2.30;;
59239;SDS011;45010;53.640;10.578;2022-12-18T17:06:07;3.15;;;2.85;;
59239;SDS011;45010;53.640;10.578;2022-12-18T17:09:10;3.33;;;2.88;;
59239;SDS011;45010;53.640;10.578;2022-12-18T17:12:13;3.10;;;2.75;;
59239;SDS011;45010;53.640;10.578;2022-12-18T17:15:13;3.17;;;2.70;;
59239;SDS011;45010;53.640;10.578;2022-12-18T17:18:13;2.70;;;2.50;;
59239;SDS011;45010;53.640;10.578;2022-12-18T17:21:14;3.15;;;2.85;;
59239;SDS011;45010;53.640;10.578;2022-12-18T17:24:15;2.97;;;2.65;;
59239;SDS011;45010;53.640;10.578;2022-12-18T17:27:16;3.42;;;3.03;;
59239;SDS011;45010;53.640;10.578;2022-12-18T17:30:17;4.05;;;2.58;;
59239;SDS011;45010;53.640;10.578;2022-12-18T17:33:18;3.03;;;2.72;;
59239;SDS011;45010;53.640;10.578;2022-12-18T17:36:18;3.25;;;2.65;;
59239;SDS011;45010;53.640;10.578;2022-12-18T17:39:19;3.25;;;2.72;;
59239;SDS011;45010;53.640;10.578;2022-12-18T17:42:20;2.63;;;2.28;;
59239;SDS011;45010;53.640;10.578;2022-12-18T17:45:20;2.40;;;2.17;;
59239;SDS011;45010;53.640;10.578;2022-12-18T17:48:20;2.72;;;2.50;;
59239;SDS011;45010;53.640;10.578;2022-12-18T17:51:21;2.53;;;2.28;;
59239;SDS011;45010;53.640;10.578;2022-12-18T17:54:22;2.50;;;2.28;;
59239;SDS011;45010;53.640;10.578;2022-12-18T17:57:22;2.90;;;2.60;;
59239;SDS011;45010;53.640;10.578;2022-12-18T18:00:22;3.33;;;2.53;;
59239;SDS011;45010;53.640;10.578;2022-12-18T18:03:23;2.58;;;2.35;;
59239;SDS011;45010;53.640;10.578;2022-12-18T18:06:23;2.50;;;2.20;;
59239;SDS011;45010;53.640;10.578;2022-12-18T18:09:23;2.38;;;2.17;;
59239;SDS011;45010;53.640;10.578;2022-12-18T18:12:24;2.47;;;2.25;;
59239;SDS011;45010;53.640;10.578;2022-12-18T18:15:43;2.78;;;2.22;;
59239;SDS011;45010;53.640;10.578;2022-12-18T18:18:43;3.22;;;2.58;;
59239;SDS011;45010;53.640;10.578;2022-12-18T18:21:44;2.28;;;2.08;;
59239;SDS011;45010;53.640;10.578;2022-12-18T18:24:46;2.67;;;2.45;;
59239;SDS011;45010;53.640;10.578;2022-12-18T18:27:46;2.60;;;2.40;;
59239;SDS011;45010;53.640;10.578;2022-12-18T18:30:46;2.92;;;2.33;;
59239;SDS011;45010;53.640;10.578;2022-12-18T18:33:46;2.40;;;2.20;;
59239;SDS011;45010;53.640;10.578;2022-12-18T18:36:47;3.00;;;2.70;;
59239;SDS011;45010;53.640;10.578;2022-12-18T18:39:47;3.13;;;2.60;;
59239;SDS011;45010;53.640;10.578;2022-12-18T18:42:48;2.65;;;2.42;;
59239;SDS011;45010;53.640;10.578;2022-12-18T18:45:48;3.17;;;2.50;;
59239;SDS011;45010;53.640;10.578;2022-12-18T18:48:54;2.80;;;2.60;;
59239;SDS011;45010;53.640;10.578;2022-12-18T18:51:55;3.42;;;2.75;;
59239;SDS011;45010;53.640;10.578;2022-12-18T18:54:56;2.83;;;2.53;;
59239;SDS011;45010;53.640;10.578;2022-12-18T18:57:56;2.40;;;2.20;;
59239;SDS011;45010;53.640;10.578;2022-12-18T19:00:58;2.60;;;2.30;;
59239;SDS011;45010;53.640;10.578;2022-12-18T19:04:03;2.88;;;2.22;;
59239;SDS011;45010;53.640;10.578;2022-12-18T19:07:03;2.55;;;2.15;;
59239;SDS011;45010;53.640;10.578;2022-12-18T19:10:04;2.60;;;2.40;;